sensor_id;sensor_type;location;lat;lon;timestamp;pressure;altitude;pressure_sealevel;temperature;humidity
17209;BME280;8720;48.488;9.202;2022-08-05T00:00:27;96646.53;;;29.64;37.03
17209;BME280;8720;48.488;9.202;2022-08-05T00:02:55;96646.88;;;29.61;36.47
17209;BME280;8720;48.488;9.202;2022-08-05T00:05:23;96646.34;;;29.57;36.63
17209;BME280;8720;48.488;9.202;2022-08-05T00:07:50;96652.91;;;29.55;36.79
17209;BME280;8720;48.488;9.202;2022-08-05T00:10:17;96645.16;;;29.52;36.52
17209;BME280;8720;48.488;9.202;2022-08-05T00:12:46;96657.28;;;29.48;36.94
17209;BME280;8720;48.488;9.202;2022-08-05T00:15:13;96663.31;;;29.42;36.69
17209;BME280;8720;48.488;9.202;2022-08-05T00:17:40;96660.25;;;29.37;37.32
17209;BME280;8720;48.488;9.202;2022-08-05T00:20:09;96664.41;;;29.31;37.08
17209;BME280;8720;48.488;9.202;2022-08-05T00:22:36;96665.72;;;29.27;37.66
17209;BME280;8720;48.488;9.202;2022-08-05T00:25:04;96666.06;;;29.24;37.85
17209;BME280;8720;48.488;9.202;2022-08-05T00:27:32;96662.00;;;29.20;37.26
17209;BME280;8720;48.488;9.202;2022-08-05T00:30:00;96668.53;;;29.18;37.83
17209;BME280;8720;48.488;9.202;2022-08-05T00:32:28;96664.47;;;29.14;37.77
17209;BME280;8720;48.488;9.202;2022-08-05T00:34:55;96664.25;;;29.07;38.48
17209;BME280;8720;48.488;9.202;2022-08-05T00:37:22;96664.41;;;29.06;38.46
17209;BME280;8720;48.488;9.202;2022-08-05T00:39:49;96671.81;;;29.04;39.15
17209;BME280;8720;48.488;9.202;2022-08-05T00:42:29;96667.06;;;28.98;38.77
17209;BME280;8720;48.488;9.202;2022-08-05T00:44:57;96664.13;;;28.91;38.79
17209;BME280;8720;48.488;9.202;2022-08-05T00:47:25;96666.63;;;28.85;39.08
17209;BME280;8720;48.488;9.202;2022-08-05T00:49:52;96670.94;;;28.78;39.42
17209;BME280;8720;48.488;9.202;2022-08-05T00:52:20;96676.94;;;28.71;39.35
17209;BME280;8720;48.488;9.202;2022-08-05T00:54:47;96677.59;;;28.65;39.12
17209;BME280;8720;48.488;9.202;2022-08-05T00:57:15;96697.59;;;28.63;39.55
17209;BME280;8720;48.488;9.202;2022-08-05T00:59:42;96702.75;;;28.56;39.80
17209;BME280;8720;48.488;9.202;2022-08-05T01:02:10;96696.09;;;28.51;39.81
17209;BME280;8720;48.488;9.202;2022-08-05T01:04:38;96687.41;;;28.39;39.57
17209;BME280;8720;48.488;9.202;2022-08-05T01:07:06;96691.94;;;28.39;39.53
17209;BME280;8720;48.488;9.202;2022-08-05T01:09:33;96681.25;;;28.29;39.55
17209;BME280;8720;48.488;9.202;2022-08-05T01:12:05;96692.03;;;28.29;40.33
17209;BME280;8720;48.488;9.202;2022-08-05T01:14:45;96689.25;;;28.21;39.42
17209;BME280;8720;48.488;9.202;2022-08-05T01:17:20;96695.09;;;28.17;40.02
17209;BME280;8720;48.488;9.202;2022-08-05T01:20:03;96681.56;;;28.09;39.90
17209;BME280;8720;48.488;9.202;2022-08-05T01:22:50;96695.47;;;28.04;40.12
17209;BME280;8720;48.488;9.202;2022-08-05T01:25:56;96681.63;;;27.99;40.12
17209;BME280;8720;48.488;9.202;2022-08-05T01:28:36;96692.53;;;27.98;40.25
17209;BME280;8720;48.488;9.202;2022-08-05T01:31:09;96687.16;;;27.98;39.62
17209;BME280;8720;48.488;9.202;2022-08-05T01:33:45;96692.69;;;27.96;39.92
17209;BME280;8720;48.488;9.202;2022-08-05T01:36:17;96700.06;;;27.94;40.52
17209;BME280;8720;48.488;9.202;2022-08-05T01:38:46;96754.13;;;27.91;40.91
17209;BME280;8720;48.488;9.202;2022-08-05T01:41:17;96767.47;;;27.83;40.64
17209;BME280;8720;48.488;9.202;2022-08-05T01:43:48;96770.03;;;27.75;40.33
17209;BME280;8720;48.488;9.202;2022-08-05T01:46:19;96767.97;;;27.69;40.50
17209;BME280;8720;48.488;9.202;2022-08-05T01:48:47;96772.91;;;27.64;40.39
17209;BME280;8720;48.488;9.202;2022-08-05T01:51:17;96775.34;;;27.67;40.21
17209;BME280;8720;48.488;9.202;2022-08-05T01:53:48;96779.53;;;27.69;40.74
17209;BME280;8720;48.488;9.202;2022-08-05T01:56:17;96780.56;;;27.68;40.45
17209;BME280;8720;48.488;9.202;2022-08-05T01:58:51;96774.16;;;27.69;40.02
17209;BME280;8720;48.488;9.202;2022-08-05T02:03:55;96787.50;;;27.71;40.26
17209;BME280;8720;48.488;9.202;2022-08-05T02:06:24;96791.00;;;27.71;40.10
17209;BME280;8720;48.488;9.202;2022-08-05T02:08:52;96797.53;;;27.69;40.58
17209;BME280;8720;48.488;9.202;2022-08-05T02:11:21;96806.16;;;27.72;40.55
17209;BME280;8720;48.488;9.202;2022-08-05T02:13:55;96796.25;;;27.73;40.35
17209;BME280;8720;48.488;9.202;2022-08-05T02:16:30;96785.22;;;27.66;40.59
17209;BME280;8720;48.488;9.202;2022-08-05T02:19:05;96786.31;;;27.73;40.43
17209;BME280;8720;48.488;9.202;2022-08-05T02:21:42;96786.31;;;27.73;40.25
17209;BME280;8720;48.488;9.202;2022-08-05T02:24:19;96795.25;;;27.74;40.50
17209;BME280;8720;48.488;9.202;2022-08-05T02:26:55;96797.22;;;27.72;40.22
17209;BME280;8720;48.488;9.202;2022-08-05T02:29:28;96785.94;;;27.68;40.28
17209;BME280;8720;48.488;9.202;2022-08-05T02:31:58;96783.41;;;27.67;40.69
17209;BME280;8720;48.488;9.202;2022-08-05T02:34:30;96786.09;;;27.67;40.39
17209;BME280;8720;48.488;9.202;2022-08-05T02:37:03;96794.16;;;27.67;40.50
17209;BME280;8720;48.488;9.202;2022-08-05T02:39:35;96785.78;;;27.70;40.18
17209;BME280;8720;48.488;9.202;2022-08-05T02:42:06;96789.16;;;27.72;40.46
17209;BME280;8720;48.488;9.202;2022-08-05T02:44:38;96802.31;;;27.75;40.11
17209;BME280;8720;48.488;9.202;2022-08-05T02:47:09;96798.47;;;27.77;40.20
17209;BME280;8720;48.488;9.202;2022-08-05T02:49:39;96802.72;;;27.80;40.22
17209;BME280;8720;48.488;9.202;2022-08-05T02:52:12;96802.56;;;27.81;39.85
17209;BME280;8720;48.488;9.202;2022-08-05T02:54:42;96799.03;;;27.81;40.03
17209;BME280;8720;48.488;9.202;2022-08-05T02:57:13;96792.66;;;27.82;39.81
17209;BME280;8720;48.488;9.202;2022-08-05T02:59:44;96790.97;;;27.81;40.37
17209;BME280;8720;48.488;9.202;2022-08-05T03:02:14;96793.66;;;27.81;40.43
17209;BME280;8720;48.488;9.202;2022-08-05T03:04:44;96792.66;;;27.82;40.27
17209;BME280;8720;48.488;9.202;2022-08-05T03:07:12;96788.97;;;27.83;40.39
17209;BME280;8720;48.488;9.202;2022-08-05T03:09:42;96794.22;;;27.84;40.46
17209;BME280;8720;48.488;9.202;2022-08-05T03:12:28;96788.16;;;27.82;39.93
17209;BME280;8720;48.488;9.202;2022-08-05T03:14:57;96785.47;;;27.82;40.38
17209;BME280;8720;48.488;9.202;2022-08-05T03:17:24;96791.81;;;27.81;40.35
17209;BME280;8720;48.488;9.202;2022-08-05T03:19:52;96799.88;;;27.81;40.54
17209;BME280;8720;48.488;9.202;2022-08-05T03:22:19;96795.50;;;27.80;40.52
17209;BME280;8720;48.488;9.202;2022-08-05T03:24:48;96796.50;;;27.79;40.62
17209;BME280;8720;48.488;9.202;2022-08-05T03:27:17;96778.72;;;27.69;40.53
17209;BME280;8720;48.488;9.202;2022-08-05T03:29:44;96798.47;;;27.77;40.65
17209;BME280;8720;48.488;9.202;2022-08-05T03:32:14;96804.00;;;27.76;40.91
17209;BME280;8720;48.488;9.202;2022-08-05T03:34:42;96798.94;;;27.73;40.50
17209;BME280;8720;48.488;9.202;2022-08-05T03:37:11;96806.31;;;27.71;40.43
17209;BME280;8720;48.488;9.202;2022-08-05T03:39:38;96808.28;;;27.69;40.77
17209;BME280;8720;48.488;9.202;2022-08-05T03:42:17;96808.56;;;27.66;40.99
17209;BME280;8720;48.488;9.202;2022-08-05T03:44:44;96823.28;;;27.62;40.57
17209;BME280;8720;48.488;9.202;2022-08-05T03:47:13;96822.47;;;27.61;40.74
17209;BME280;8720;48.488;9.202;2022-08-05T03:49:40;96827.97;;;27.60;40.89
17209;BME280;8720;48.488;9.202;2022-08-05T03:52:11;96837.91;;;27.59;40.61
17209;BME280;8720;48.488;9.202;2022-08-05T03:54:50;96838.88;;;27.58;40.61
17209;BME280;8720;48.488;9.202;2022-08-05T03:57:24;96841.41;;;27.60;41.14
17209;BME280;8720;48.488;9.202;2022-08-05T03:59:59;96850.31;;;27.60;41.06
17209;BME280;8720;48.488;9.202;2022-08-05T04:02:31;96837.03;;;27.59;40.75
17209;BME280;8720;48.488;9.202;2022-08-05T04:05:03;96836.34;;;27.57;41.09
17209;BME280;8720;48.488;9.202;2022-08-05T04:07:33;96836.59;;;27.54;40.86
17209;BME280;8720;48.488;9.202;2022-08-05T04:10:01;96823.47;;;27.51;41.41
17209;BME280;8720;48.488;9.202;2022-08-05T04:12:28;96822.78;;;27.49;41.32
17209;BME280;8720;48.488;9.202;2022-08-05T04:14:56;96822.91;;;27.47;41.84
17209;BME280;8720;48.488;9.202;2022-08-05T04:17:25;96822.22;;;27.45;41.57
17209;BME280;8720;48.488;9.202;2022-08-05T04:19:54;96818.81;;;27.43;41.21
17209;BME280;8720;48.488;9.202;2022-08-05T04:22:21;96821.66;;;27.42;41.72
17209;BME280;8720;48.488;9.202;2022-08-05T04:24:48;96826.19;;;27.41;41.10
17209;BME280;8720;48.488;9.202;2022-08-05T04:27:15;96828.16;;;27.39;41.79
17209;BME280;8720;48.488;9.202;2022-08-05T04:29:43;96822.09;;;27.37;41.81
17209;BME280;8720;48.488;9.202;2022-08-05T04:32:10;96831.00;;;27.38;42.00
17209;BME280;8720;48.488;9.202;2022-08-05T04:34:37;96822.94;;;27.38;42.34
17209;BME280;8720;48.488;9.202;2022-08-05T04:37:06;96829.44;;;27.35;41.72
17209;BME280;8720;48.488;9.202;2022-08-05T04:39:33;96826.16;;;27.32;41.93
17209;BME280;8720;48.488;9.202;2022-08-05T04:42:00;96807.63;;;27.29;41.97
17209;BME280;8720;48.488;9.202;2022-08-05T04:44:28;96802.25;;;27.57;42.81
17209;BME280;8720;48.488;9.202;2022-08-05T04:46:55;96801.56;;;27.46;42.10
17209;BME280;8720;48.488;9.202;2022-08-05T04:49:22;96805.81;;;27.39;41.99
17209;BME280;8720;48.488;9.202;2022-08-05T04:51:49;96815.84;;;27.37;41.94
17209;BME280;8720;48.488;9.202;2022-08-05T04:54:18;96821.94;;;27.39;42.16
17209;BME280;8720;48.488;9.202;2022-08-05T04:56:46;96843.16;;;27.42;42.02
17209;BME280;8720;48.488;9.202;2022-08-05T04:59:13;96863.38;;;27.46;42.02
17209;BME280;8720;48.488;9.202;2022-08-05T05:01:41;96878.25;;;27.50;42.11
17209;BME280;8720;48.488;9.202;2022-08-05T05:04:08;96876.22;;;27.52;42.34
17209;BME280;8720;48.488;9.202;2022-08-05T05:06:35;96876.94;;;27.54;42.60
17209;BME280;8720;48.488;9.202;2022-08-05T05:09:03;96899.84;;;27.58;42.37
17209;BME280;8720;48.488;9.202;2022-08-05T05:11:31;96925.75;;;27.68;42.92
17209;BME280;8720;48.488;9.202;2022-08-05T05:13:59;96959.38;;;27.92;42.57
17209;BME280;8720;48.488;9.202;2022-08-05T05:16:28;96966.41;;;28.21;42.16
17209;BME280;8720;48.488;9.202;2022-08-05T05:18:55;96976.66;;;28.54;41.71
17209;BME280;8720;48.488;9.202;2022-08-05T05:21:22;96986.47;;;28.83;41.35
17209;BME280;8720;48.488;9.202;2022-08-05T05:23:50;97009.22;;;28.98;41.31
17209;BME280;8720;48.488;9.202;2022-08-05T05:26:20;97008.63;;;29.04;40.50
17209;BME280;8720;48.488;9.202;2022-08-05T05:28:49;97010.09;;;29.25;39.79
17209;BME280;8720;48.488;9.202;2022-08-05T05:31:16;97012.66;;;29.44;39.47
17209;BME280;8720;48.488;9.202;2022-08-05T05:33:43;97021.34;;;29.56;39.30
17209;BME280;8720;48.488;9.202;2022-08-05T05:36:11;97017.16;;;29.71;39.20
17209;BME280;8720;48.488;9.202;2022-08-05T05:38:38;97023.84;;;30.02;38.61
17209;BME280;8720;48.488;9.202;2022-08-05T05:41:06;97025.78;;;30.35;37.89
17209;BME280;8720;48.488;9.202;2022-08-05T05:43:33;97023.03;;;30.53;37.73
17209;BME280;8720;48.488;9.202;2022-08-05T05:46:01;97006.03;;;30.61;37.83
17209;BME280;8720;48.488;9.202;2022-08-05T05:48:28;97009.56;;;30.61;37.34
17209;BME280;8720;48.488;9.202;2022-08-05T05:50:56;97020.38;;;30.61;37.19
17209;BME280;8720;48.488;9.202;2022-08-05T05:53:23;97036.47;;;30.71;37.01
17209;BME280;8720;48.488;9.202;2022-08-05T05:55:50;97047.16;;;31.06;37.18
17209;BME280;8720;48.488;9.202;2022-08-05T05:58:18;97048.88;;;31.49;36.44
17209;BME280;8720;48.488;9.202;2022-08-05T06:00:45;97036.94;;;31.99;35.83
17209;BME280;8720;48.488;9.202;2022-08-05T06:03:13;97026.47;;;32.45;35.16
17209;BME280;8720;48.488;9.202;2022-08-05T06:05:41;97041.28;;;33.05;34.28
17209;BME280;8720;48.488;9.202;2022-08-05T06:08:08;97037.00;;;33.57;33.83
17209;BME280;8720;48.488;9.202;2022-08-05T06:10:36;97036.78;;;34.12;33.48
17209;BME280;8720;48.488;9.202;2022-08-05T06:13:03;97048.75;;;34.63;32.50
17209;BME280;8720;48.488;9.202;2022-08-05T06:15:31;97046.75;;;35.09;31.94
17209;BME280;8720;48.488;9.202;2022-08-05T06:17:58;97053.66;;;35.55;31.38
17209;BME280;8720;48.488;9.202;2022-08-05T06:20:27;97056.03;;;35.94;30.73
17209;BME280;8720;48.488;9.202;2022-08-05T06:22:54;97057.22;;;36.27;30.42
17209;BME280;8720;48.488;9.202;2022-08-05T06:25:21;97047.66;;;36.59;29.93
17209;BME280;8720;48.488;9.202;2022-08-05T06:27:49;97048.97;;;36.90;29.56
17209;BME280;8720;48.488;9.202;2022-08-05T06:30:16;97040.13;;;37.22;29.21
17209;BME280;8720;48.488;9.202;2022-08-05T06:32:43;97045.13;;;37.53;28.54
17209;BME280;8720;48.488;9.202;2022-08-05T06:35:11;97052.75;;;37.71;28.29
17209;BME280;8720;48.488;9.202;2022-08-05T06:37:39;97054.94;;;37.82;28.03
17209;BME280;8720;48.488;9.202;2022-08-05T06:40:08;97047.59;;;37.95;28.07
17209;BME280;8720;48.488;9.202;2022-08-05T06:42:36;97039.00;;;38.05;27.64
17209;BME280;8720;48.488;9.202;2022-08-05T06:45:04;97036.78;;;38.22;27.60
17209;BME280;8720;48.488;9.202;2022-08-05T06:47:31;97034.03;;;38.22;27.36
17209;BME280;8720;48.488;9.202;2022-08-05T06:49:58;97041.38;;;38.14;27.64
17209;BME280;8720;48.488;9.202;2022-08-05T06:52:26;97038.41;;;38.16;27.69
17209;BME280;8720;48.488;9.202;2022-08-05T06:54:54;97043.66;;;38.17;27.74
17209;BME280;8720;48.488;9.202;2022-08-05T06:57:21;97044.75;;;38.23;27.65
17209;BME280;8720;48.488;9.202;2022-08-05T06:59:49;97036.94;;;38.20;27.68
17209;BME280;8720;48.488;9.202;2022-08-05T07:02:16;97034.66;;;38.24;27.46
17209;BME280;8720;48.488;9.202;2022-08-05T07:04:43;97018.69;;;38.34;27.46
17209;BME280;8720;48.488;9.202;2022-08-05T07:07:10;97013.84;;;38.49;27.28
17209;BME280;8720;48.488;9.202;2022-08-05T07:09:38;97009.66;;;38.66;26.87
17209;BME280;8720;48.488;9.202;2022-08-05T07:12:07;97007.97;;;38.78;26.78
17209;BME280;8720;48.488;9.202;2022-08-05T07:14:55;97011.31;;;38.93;26.67
17209;BME280;8720;48.488;9.202;2022-08-05T07:17:40;97014.22;;;39.11;26.78
17209;BME280;8720;48.488;9.202;2022-08-05T07:20:08;97024.47;;;39.35;26.24
17209;BME280;8720;48.488;9.202;2022-08-05T07:22:35;97026.50;;;39.59;26.05
17209;BME280;8720;48.488;9.202;2022-08-05T07:25:04;97025.59;;;39.78;25.59
17209;BME280;8720;48.488;9.202;2022-08-05T07:27:33;97036.50;;;39.85;25.56
17209;BME280;8720;48.488;9.202;2022-08-05T07:30:00;97039.31;;;39.72;25.53
17209;BME280;8720;48.488;9.202;2022-08-05T07:32:27;97045.03;;;39.64;25.37
17209;BME280;8720;48.488;9.202;2022-08-05T07:34:54;97068.03;;;39.56;25.58
17209;BME280;8720;48.488;9.202;2022-08-05T07:37:22;97067.84;;;39.45;25.29
17209;BME280;8720;48.488;9.202;2022-08-05T07:39:49;97069.34;;;39.34;25.74
17209;BME280;8720;48.488;9.202;2022-08-05T07:42:16;97067.84;;;39.38;25.57
17209;BME280;8720;48.488;9.202;2022-08-05T07:44:45;97077.09;;;39.44;25.51
17209;BME280;8720;48.488;9.202;2022-08-05T07:47:13;97081.78;;;39.37;25.39
17209;BME280;8720;48.488;9.202;2022-08-05T07:49:41;97071.28;;;39.21;24.95
17209;BME280;8720;48.488;9.202;2022-08-05T07:52:08;97078.44;;;39.02;24.79
17209;BME280;8720;48.488;9.202;2022-08-05T07:54:35;97075.50;;;38.90;24.59
17209;BME280;8720;48.488;9.202;2022-08-05T07:57:04;97069.84;;;38.72;24.62
17209;BME280;8720;48.488;9.202;2022-08-05T07:59:31;97083.50;;;38.53;24.64
17209;BME280;8720;48.488;9.202;2022-08-05T08:02:00;97079.69;;;38.34;24.62
17209;BME280;8720;48.488;9.202;2022-08-05T08:04:27;97081.72;;;38.19;24.81
17209;BME280;8720;48.488;9.202;2022-08-05T08:06:55;97064.63;;;37.97;24.83
17209;BME280;8720;48.488;9.202;2022-08-05T08:09:25;97063.53;;;37.79;25.04
17209;BME280;8720;48.488;9.202;2022-08-05T08:11:53;97059.84;;;37.59;25.19
17209;BME280;8720;48.488;9.202;2022-08-05T08:14:20;97064.47;;;37.52;25.46
17209;BME280;8720;48.488;9.202;2022-08-05T08:16:47;97060.88;;;37.51;25.22
17209;BME280;8720;48.488;9.202;2022-08-05T08:19:16;97063.66;;;37.58;24.82
17209;BME280;8720;48.488;9.202;2022-08-05T08:21:43;97067.88;;;37.60;25.01
17209;BME280;8720;48.488;9.202;2022-08-05T08:24:10;97079.00;;;37.65;25.12
17209;BME280;8720;48.488;9.202;2022-08-05T08:26:38;97076.50;;;37.64;24.93
17209;BME280;8720;48.488;9.202;2022-08-05T08:29:05;97076.06;;;37.67;24.85
17209;BME280;8720;48.488;9.202;2022-08-05T08:31:32;97080.88;;;37.65;24.69
17209;BME280;8720;48.488;9.202;2022-08-05T08:33:59;97077.97;;;37.66;25.45
17209;BME280;8720;48.488;9.202;2022-08-05T08:36:28;97070.84;;;37.72;25.08
17209;BME280;8720;48.488;9.202;2022-08-05T08:38:55;97072.31;;;37.74;25.16
17209;BME280;8720;48.488;9.202;2022-08-05T08:41:25;97071.97;;;37.84;25.13
17209;BME280;8720;48.488;9.202;2022-08-05T08:43:54;97074.94;;;37.89;25.19
17209;BME280;8720;48.488;9.202;2022-08-05T08:46:26;97064.44;;;37.92;25.12
17209;BME280;8720;48.488;9.202;2022-08-05T08:48:54;97072.19;;;37.89;24.98
17209;BME280;8720;48.488;9.202;2022-08-05T08:51:23;97063.97;;;37.82;25.01
17209;BME280;8720;48.488;9.202;2022-08-05T08:53:55;97051.69;;;37.65;24.94
17209;BME280;8720;48.488;9.202;2022-08-05T08:56:22;97060.81;;;37.38;25.34
17209;BME280;8720;48.488;9.202;2022-08-05T08:58:50;97053.13;;;37.14;25.56
17209;BME280;8720;48.488;9.202;2022-08-05T09:01:18;97051.94;;;36.95;25.97
17209;BME280;8720;48.488;9.202;2022-08-05T09:03:48;97041.69;;;36.76;26.00
17209;BME280;8720;48.488;9.202;2022-08-05T09:06:16;97035.06;;;36.58;25.89
17209;BME280;8720;48.488;9.202;2022-08-05T09:08:43;97037.59;;;36.38;26.02
17209;BME280;8720;48.488;9.202;2022-08-05T09:11:12;97038.50;;;36.24;26.19
17209;BME280;8720;48.488;9.202;2022-08-05T09:13:41;97032.38;;;36.15;26.62
17209;BME280;8720;48.488;9.202;2022-08-05T09:16:09;97035.00;;;36.09;26.29
17209;BME280;8720;48.488;9.202;2022-08-05T09:18:38;97024.88;;;36.03;26.59
17209;BME280;8720;48.488;9.202;2022-08-05T09:21:06;97015.53;;;35.91;26.61
17209;BME280;8720;48.488;9.202;2022-08-05T09:23:33;97016.44;;;35.77;26.92
17209;BME280;8720;48.488;9.202;2022-08-05T09:26:07;97024.47;;;35.63;26.66
17209;BME280;8720;48.488;9.202;2022-08-05T09:28:39;97013.69;;;35.55;26.82
17209;BME280;8720;48.488;9.202;2022-08-05T09:31:08;97016.41;;;35.55;26.72
17209;BME280;8720;48.488;9.202;2022-08-05T09:33:48;97015.31;;;35.50;26.68
17209;BME280;8720;48.488;9.202;2022-08-05T09:36:17;97012.75;;;35.48;26.68
17209;BME280;8720;48.488;9.202;2022-08-05T09:38:56;97011.06;;;35.47;26.67
17209;BME280;8720;48.488;9.202;2022-08-05T09:41:24;97022.50;;;35.43;26.70
17209;BME280;8720;48.488;9.202;2022-08-05T09:43:52;97010.22;;;35.32;26.28
17209;BME280;8720;48.488;9.202;2022-08-05T09:46:26;97002.81;;;35.26;26.70
17209;BME280;8720;48.488;9.202;2022-08-05T09:48:55;97003.84;;;35.25;26.17
17209;BME280;8720;48.488;9.202;2022-08-05T09:51:34;97001.50;;;35.22;26.04
17209;BME280;8720;48.488;9.202;2022-08-05T09:54:04;96997.22;;;35.13;26.27
17209;BME280;8720;48.488;9.202;2022-08-05T09:56:36;96987.19;;;34.99;26.11
17209;BME280;8720;48.488;9.202;2022-08-05T09:59:07;97002.00;;;34.97;26.07
17209;BME280;8720;48.488;9.202;2022-08-05T10:01:39;96991.19;;;34.89;26.60
17209;BME280;8720;48.488;9.202;2022-08-05T10:04:09;96993.09;;;34.88;26.46
17209;BME280;8720;48.488;9.202;2022-08-05T10:06:39;96991.47;;;34.94;26.65
17209;BME280;8720;48.488;9.202;2022-08-05T10:09:12;96983.06;;;35.03;26.48
17209;BME280;8720;48.488;9.202;2022-08-05T10:11:42;96986.34;;;35.13;26.40
17209;BME280;8720;48.488;9.202;2022-08-05T10:14:26;96987.44;;;35.19;26.87
17209;BME280;8720;48.488;9.202;2022-08-05T10:16:56;96995.31;;;35.28;26.95
17209;BME280;8720;48.488;9.202;2022-08-05T10:19:25;96998.09;;;35.35;26.71
17209;BME280;8720;48.488;9.202;2022-08-05T10:21:53;96997.53;;;35.39;26.88
17209;BME280;8720;48.488;9.202;2022-08-05T10:24:20;96991.06;;;35.40;26.29
17209;BME280;8720;48.488;9.202;2022-08-05T10:26:49;96994.44;;;35.42;26.58
17209;BME280;8720;48.488;9.202;2022-08-05T10:29:20;96991.91;;;35.41;26.87
17209;BME280;8720;48.488;9.202;2022-08-05T10:31:49;96992.66;;;35.35;26.58
17209;BME280;8720;48.488;9.202;2022-08-05T10:34:17;96988.47;;;35.32;27.04
17209;BME280;8720;48.488;9.202;2022-08-05T10:36:45;96990.78;;;35.35;26.92
17209;BME280;8720;48.488;9.202;2022-08-05T10:39:17;96988.16;;;35.42;26.74
17209;BME280;8720;48.488;9.202;2022-08-05T10:41:54;96985.53;;;35.48;26.69
17209;BME280;8720;48.488;9.202;2022-08-05T10:44:25;96994.63;;;35.55;26.49
17209;BME280;8720;48.488;9.202;2022-08-05T10:46:56;96991.91;;;35.55;26.80
17209;BME280;8720;48.488;9.202;2022-08-05T10:49:24;96981.13;;;35.47;26.87
17209;BME280;8720;48.488;9.202;2022-08-05T10:51:54;96984.56;;;35.41;26.41
17209;BME280;8720;48.488;9.202;2022-08-05T10:54:44;96988.72;;;35.37;27.03
17209;BME280;8720;48.488;9.202;2022-08-05T10:57:24;96997.00;;;35.44;27.32
17209;BME280;8720;48.488;9.202;2022-08-05T11:00:11;96986.13;;;35.44;26.74
17209;BME280;8720;48.488;9.202;2022-08-05T11:03:09;96985.16;;;35.37;26.89
17209;BME280;8720;48.488;9.202;2022-08-05T11:05:38;96990.97;;;35.34;27.03
17209;BME280;8720;48.488;9.202;2022-08-05T11:08:08;96987.41;;;35.33;26.68
17209;BME280;8720;48.488;9.202;2022-08-05T11:10:37;96989.31;;;35.33;27.37
17209;BME280;8720;48.488;9.202;2022-08-05T11:13:06;96982.38;;;35.30;26.91
17209;BME280;8720;48.488;9.202;2022-08-05T11:15:36;96972.88;;;35.26;26.83
17209;BME280;8720;48.488;9.202;2022-08-05T11:18:22;96982.94;;;35.26;27.18
17209;BME280;8720;48.488;9.202;2022-08-05T11:20:52;96986.69;;;35.25;27.06
17209;BME280;8720;48.488;9.202;2022-08-05T11:23:36;96984.94;;;35.17;27.00
17209;BME280;8720;48.488;9.202;2022-08-05T11:26:09;96988.97;;;35.07;27.20
17209;BME280;8720;48.488;9.202;2022-08-05T11:28:40;96983.06;;;35.03;26.62
17209;BME280;8720;48.488;9.202;2022-08-05T11:31:28;96979.94;;;35.06;27.04
17209;BME280;8720;48.488;9.202;2022-08-05T11:34:06;96978.19;;;35.13;27.03
17209;BME280;8720;48.488;9.202;2022-08-05T11:36:46;96982.47;;;35.22;26.72
17209;BME280;8720;48.488;9.202;2022-08-05T11:41:59;96963.72;;;35.13;27.05
17209;BME280;8720;48.488;9.202;2022-08-05T11:44:36;96975.06;;;35.31;26.61
17209;BME280;8720;48.488;9.202;2022-08-05T11:47:04;96970.63;;;35.30;26.96
17209;BME280;8720;48.488;9.202;2022-08-05T11:49:33;96968.97;;;35.29;26.54
17209;BME280;8720;48.488;9.202;2022-08-05T11:52:01;96971.69;;;35.29;26.64
17209;BME280;8720;48.488;9.202;2022-08-05T11:54:30;96970.16;;;35.26;26.66
17209;BME280;8720;48.488;9.202;2022-08-05T11:57:00;96969.50;;;35.24;26.89
17209;BME280;8720;48.488;9.202;2022-08-05T11:59:30;96968.88;;;35.22;26.64
17209;BME280;8720;48.488;9.202;2022-08-05T12:02:01;96960.69;;;35.22;27.07
17209;BME280;8720;48.488;9.202;2022-08-05T12:04:41;96956.31;;;35.21;26.80
17209;BME280;8720;48.488;9.202;2022-08-05T12:07:11;96959.03;;;35.21;26.76
17209;BME280;8720;48.488;9.202;2022-08-05T12:09:41;96954.59;;;35.20;26.77
17209;BME280;8720;48.488;9.202;2022-08-05T12:12:09;96947.50;;;35.19;27.11
17209;BME280;8720;48.488;9.202;2022-08-05T12:14:39;96953.94;;;35.18;27.05
17209;BME280;8720;48.488;9.202;2022-08-05T12:17:08;96943.81;;;35.12;26.82
17209;BME280;8720;48.488;9.202;2022-08-05T12:19:46;96954.50;;;35.14;27.17
17209;BME280;8720;48.488;9.202;2022-08-05T12:22:15;96942.97;;;35.12;26.67
17209;BME280;8720;48.488;9.202;2022-08-05T12:24:46;96936.53;;;35.13;26.82
17209;BME280;8720;48.488;9.202;2022-08-05T12:27:22;96938.38;;;35.12;26.96
17209;BME280;8720;48.488;9.202;2022-08-05T12:30:01;96929.00;;;35.15;26.77
17209;BME280;8720;48.488;9.202;2022-08-05T12:32:31;96926.38;;;35.21;26.90
17209;BME280;8720;48.488;9.202;2022-08-05T12:35:02;96923.34;;;35.31;27.11
17209;BME280;8720;48.488;9.202;2022-08-05T12:37:30;96920.31;;;35.40;26.83
17209;BME280;8720;48.488;9.202;2022-08-05T12:39:58;96926.69;;;35.47;26.66
17209;BME280;8720;48.488;9.202;2022-08-05T12:42:29;96918.13;;;35.50;27.00
17209;BME280;8720;48.488;9.202;2022-08-05T12:45:02;96912.31;;;35.53;26.83
17209;BME280;8720;48.488;9.202;2022-08-05T12:47:31;96911.25;;;35.54;27.21
17209;BME280;8720;48.488;9.202;2022-08-05T12:50:11;96916.69;;;35.54;26.74
17209;BME280;8720;48.488;9.202;2022-08-05T12:52:39;96912.56;;;35.58;26.88
17209;BME280;8720;48.488;9.202;2022-08-05T12:55:18;96920.16;;;35.63;26.70
17209;BME280;8720;48.488;9.202;2022-08-05T12:57:45;96914.13;;;35.68;26.53
17209;BME280;8720;48.488;9.202;2022-08-05T13:00:20;96910.78;;;35.72;27.04
17209;BME280;8720;48.488;9.202;2022-08-05T13:02:47;96911.25;;;35.76;26.74
17209;BME280;8720;48.488;9.202;2022-08-05T13:05:16;96902.50;;;35.80;26.41
17209;BME280;8720;48.488;9.202;2022-08-05T13:07:45;96890.97;;;35.78;26.50
17209;BME280;8720;48.488;9.202;2022-08-05T13:10:14;96903.16;;;35.82;26.22
17209;BME280;8720;48.488;9.202;2022-08-05T13:12:44;96894.13;;;35.82;26.13
17209;BME280;8720;48.488;9.202;2022-08-05T13:15:13;96891.03;;;35.85;26.53
17209;BME280;8720;48.488;9.202;2022-08-05T13:17:52;96891.47;;;35.88;26.51
17209;BME280;8720;48.488;9.202;2022-08-05T13:20:21;96899.25;;;35.91;26.17
17209;BME280;8720;48.488;9.202;2022-08-05T13:22:51;96890.06;;;35.92;26.48
17209;BME280;8720;48.488;9.202;2022-08-05T13:25:19;96885.91;;;35.96;26.32
17209;BME280;8720;48.488;9.202;2022-08-05T13:27:50;96874.41;;;36.01;26.25
17209;BME280;8720;48.488;9.202;2022-08-05T13:30:20;96872.75;;;36.06;26.35